Time;durP1;ratioP1;P1;durP2;ratioP2;P2;SDS_P1;SDS_P2;PMS_P1;PMS_P2;Temp;Humidity;BMP_temperature;BMP_pressure;BME280_temperature;BME280_humidity;BME280_pressure;Samples;Min_cycle;Max_cycle;Signal;HPM_P1;HPM_P2
2023/03/08 00:00:56;;;;;;;;;;;;;;;18.03;58.83;99072.42;2235992;78;51525;-74
2023/03/08 00:03:59;;;;;;;;;;;;;;;17.98;58.94;99078.95;2211441;79;53011;-74
2023/03/08 00:07:01;;;;;;;;;;;;;;;17.89;59.15;99080.23;2235997;79;50439;-75
2023/03/08 00:10:03;;;;;;;;;;;;;;;17.83;59.35;99086.46;2235648;79;50513;-75
2023/03/08 00:13:04;;;;;;;;;;;;;;;17.81;59.38;99093.87;2236001;79;51704;-75
2023/03/08 00:16:06;;;;;;;;;;;;;;;17.79;59.48;99096.75;2213666;79;50335;-75
2023/03/08 00:19:08;;;;;;;;;;;;;;;17.76;59.51;99100.36;2246359;77;50763;-74
2023/03/08 00:22:10;;;;;;;;;;;;;;;17.77;59.47;99104.66;2181865;80;51612;-74
2023/03/08 00:25:15;;;;;;;;;;;;;;;17.81;59.48;99105.92;2181649;80;50003;-73
2023/03/08 00:28:14;;;;;;;;;;;;;;;17.87;59.33;99105.05;2181306;80;22232;-74
2023/03/08 00:31:16;;;;;;;;;;;;;;;17.97;59.17;99109.92;2181493;80;51582;-74
2023/03/08 00:34:18;;;;;;;;;;;;;;;18.01;59.00;99115.97;2181685;80;51499;-74
2023/03/08 00:37:19;;;;;;;;;;;;;;;18.04;58.89;99118.21;2181729;81;50770;-73
2023/03/08 00:40:21;;;;;;;;;;;;;;;18.04;58.86;99121.41;2158076;81;51701;-74
2023/03/08 00:43:23;;;;;;;;;;;;;;;18.01;58.95;99124.53;2181539;81;51538;-74
2023/03/08 00:46:24;;;;;;;;;;;;;;;17.96;59.05;99121.68;2184502;78;51480;-74
2023/03/08 00:49:26;;;;;;;;;;;;;;;17.92;59.11;99121.27;2236882;77;50765;-74
2023/03/08 00:52:28;;;;;;;;;;;;;;;17.85;59.30;99121.83;2181647;81;50138;-74
2023/03/08 00:55:29;;;;;;;;;;;;;;;17.81;59.42;99128.14;2181535;80;51507;-74
2023/03/08 00:58:31;;;;;;;;;;;;;;;17.81;59.49;99128.14;2181557;81;51507;-74
2023/03/08 01:01:33;;;;;;;;;;;;;;;17.85;59.43;99124.50;2181642;80;50568;-74
2023/03/08 01:04:34;;;;;;;;;;;;;;;17.91;59.31;99125.00;2157850;81;52400;-74
2023/03/08 01:07:36;;;;;;;;;;;;;;;17.97;59.14;99133.48;2181450;80;51532;-74
2023/03/08 01:10:37;;;;;;;;;;;;;;;17.98;59.05;99131.63;2181363;81;50450;-74
2023/03/08 01:13:39;;;;;;;;;;;;;;;17.96;59.05;99135.88;2181781;81;51592;-74
2023/03/08 01:16:41;;;;;;;;;;;;;;;17.93;59.16;99152.37;2165378;78;51020;-74
2023/03/08 01:19:42;;;;;;;;;;;;;;;17.88;59.23;99143.31;2257380;77;51551;-74
2023/03/08 01:22:44;;;;;;;;;;;;;;;17.83;59.32;99155.50;2290745;77;51487;-73
2023/03/08 01:25:46;;;;;;;;;;;;;;;17.77;59.51;99148.80;2244228;77;50812;-75
2023/03/08 01:28:47;;;;;;;;;;;;;;;17.74;59.63;99155.92;2239862;78;52532;-73
2023/03/08 01:31:49;;;;;;;;;;;;;;;17.74;59.58;99151.91;2216036;79;51528;-74
2023/03/08 01:34:50;;;;;;;;;;;;;;;17.77;59.53;99152.81;2238357;79;51516;-73
2023/03/08 01:37:55;;;;;;;;;;;;;;;17.82;59.41;99153.03;2215714;79;50687;-73
2023/03/08 01:41:00;;;;;;;;;;;;;;;17.90;59.28;99150.09;2189761;79;52355;-73
2023/03/08 01:44:01;;;;;;;;;;;;;;;17.98;59.06;99154.37;2215928;79;51645;-74
2023/03/08 01:47:03;;;;;;;;;;;;;;;18.05;58.87;99158.65;2212626;78;51454;-73
2023/03/08 01:50:06;;;;;;;;;;;;;;;18.08;58.76;99152.56;2242955;77;51526;-73
2023/03/08 01:53:07;;;;;;;;;;;;;;;18.08;58.68;99160.59;2215511;80;51302;-74
2023/03/08 01:56:10;;;;;;;;;;;;;;;18.06;58.69;99167.52;2216467;80;50815;-74
2023/03/08 01:59:12;;;;;;;;;;;;;;;18.03;58.73;99158.06;2216157;80;51506;-73
2023/03/08 02:02:13;;;;;;;;;;;;;;;17.98;58.81;99157.89;2216404;80;51541;-73
2023/03/08 02:05:15;;;;;;;;;;;;;;;17.92;59.00;99162.75;2215368;80;51709;-73
2023/03/08 02:08:17;;;;;;;;;;;;;;;17.87;59.14;99161.76;2216209;80;52014;-74
2023/03/08 02:11:18;;;;;;;;;;;;;;;17.91;59.06;99157.11;2216079;80;51485;-74
2023/03/08 02:14:20;;;;;;;;;;;;;;;17.98;58.88;99161.91;2216420;80;51510;-73
2023/03/08 02:17:22;;;;;;;;;;;;;;;18.04;58.73;99165.05;2224905;79;51523;-73
2023/03/08 02:20:25;;;;;;;;;;;;;;;18.12;58.53;99162.63;2222503;78;51533;-74
2023/03/08 02:23:27;;;;;;;;;;;;;;;18.17;58.43;99164.14;2241160;77;50858;-74
2023/03/08 02:26:28;;;;;;;;;;;;;;;18.25;58.29;99163.06;2216312;80;51538;-72
2023/03/08 02:29:30;;;;;;;;;;;;;;;18.29;58.16;99161.60;2228854;78;52652;-72
2023/03/08 02:32:31;;;;;;;;;;;;;;;18.28;58.10;99162.09;2211162;79;51581;-72
2023/03/08 02:35:33;;;;;;;;;;;;;;;18.26;58.14;99162.86;2200097;80;51854;-72
2023/03/08 02:38:34;;;;;;;;;;;;;;;18.23;58.20;99170.48;2200095;81;51573;-72
2023/03/08 02:41:36;;;;;;;;;;;;;;;18.18;58.26;99173.80;2178444;81;49600;-73
2023/03/08 02:44:37;;;;;;;;;;;;;;;18.16;58.26;99171.88;2201038;77;50178;-71
2023/03/08 02:47:39;;;;;;;;;;;;;;;18.13;58.35;99178.17;2229030;77;50471;-72
2023/03/08 02:50:41;;;;;;;;;;;;;;;18.14;58.36;99182.51;2215875;80;50804;-72
2023/03/08 02:53:42;;;;;;;;;;;;;;;18.16;58.31;99184.42;2193985;78;51604;-73
2023/03/08 02:56:44;;;;;;;;;;;;;;;18.20;58.26;99182.97;2257654;77;51579;-73
2023/03/08 02:59:45;;;;;;;;;;;;;;;18.27;58.16;99182.41;2264623;77;51612;-73
2023/03/08 03:02:47;;;;;;;;;;;;;;;18.30;58.11;99173.94;2250075;77;51614;-73
2023/03/08 03:05:48;;;;;;;;;;;;;;;18.34;58.03;99175.16;2265033;78;52409;-73
2023/03/08 03:08:50;;;;;;;;;;;;;;;18.38;57.97;99175.01;2264890;77;51598;-73
2023/03/08 03:11:52;;;;;;;;;;;;;;;18.43;57.84;99176.52;2238284;79;50352;-73
2023/03/08 03:14:53;;;;;;;;;;;;;;;18.47;57.72;99169.70;2229979;79;50490;-72
2023/03/08 03:17:55;;;;;;;;;;;;;;;18.52;57.68;99178.92;2246841;77;51201;-72
2023/03/08 03:20:59;;;;;;;;;;;;;;;18.53;57.62;99180.05;2290643;77;51589;-72
2023/03/08 03:24:00;;;;;;;;;;;;;;;18.53;57.60;99179.23;2290621;77;51490;-72
2023/03/08 03:27:02;;;;;;;;;;;;;;;18.49;57.64;99179.65;2290452;76;50385;-72
2023/03/08 03:30:04;;;;;;;;;;;;;;;18.45;57.69;99174.97;2194770;78;49623;-73
2023/03/08 03:33:05;;;;;;;;;;;;;;;18.40;57.74;99183.66;2233124;78;51505;-72
2023/03/08 03:36:08;;;;;;;;;;;;;;;18.35;57.81;99182.14;2233279;78;51455;-73
2023/03/08 03:39:10;;;;;;;;;;;;;;;18.35;57.96;99189.36;2233615;78;50458;-73
2023/03/08 03:42:11;;;;;;;;;;;;;;;18.34;57.96;99195.24;2233408;79;50525;-73
2023/03/08 03:45:13;;;;;;;;;;;;;;;18.38;57.90;99204.99;2232611;77;50467;-72
2023/03/08 03:48:16;;;;;;;;;;;;;;;18.42;57.80;99200.82;2206057;79;50144;-72
2023/03/08 03:51:18;;;;;;;;;;;;;;;18.48;57.71;99209.34;2233561;78;51518;-72
2023/03/08 03:54:20;;;;;;;;;;;;;;;18.51;57.67;99214.27;2235189;79;49646;-72
2023/03/08 03:57:21;;;;;;;;;;;;;;;18.57;57.59;99215.25;2225530;78;50729;-73
2023/03/08 04:00:23;;;;;;;;;;;;;;;18.59;57.50;99217.20;2255052;77;50797;-73
2023/03/08 04:03:24;;;;;;;;;;;;;;;18.58;57.55;99216.91;2244204;78;51593;-73
2023/03/08 04:06:28;;;;;;;;;;;;;;;18.53;57.56;99218.08;2272299;77;51659;-73
2023/03/08 04:09:29;;;;;;;;;;;;;;;18.48;57.63;99224.89;2290407;77;50759;-73
2023/03/08 04:12:31;;;;;;;;;;;;;;;18.42;57.81;99220.41;2290638;77;50769;-73
2023/03/08 04:15:32;;;;;;;;;;;;;;;18.39;57.87;99230.20;2290426;77;51589;-73
2023/03/08 04:18:34;;;;;;;;;;;;;;;18.36;57.96;99229.30;2264518;77;51668;-75
2023/03/08 04:21:35;;;;;;;;;;;;;;;18.36;58.01;99226.62;2252704;76;51511;-74
2023/03/08 04:24:37;;;;;;;;;;;;;;;18.38;58.00;99233.11;2219088;78;51582;-73
2023/03/08 04:27:39;;;;;;;;;;;;;;;18.42;57.93;99236.98;2233858;78;51489;-74
2023/03/08 04:30:40;;;;;;;;;;;;;;;18.43;57.89;99237.30;2235218;78;49694;-74
2023/03/08 04:33:42;;;;;;;;;;;;;;;18.47;57.85;99231.80;2233825;78;50462;-74
2023/03/08 04:36:43;;;;;;;;;;;;;;;;;;2233388;78;51570;-73
2023/03/08 04:39:44;;;;;;;;;;;;;;;18.55;57.74;99230.22;2233133;79;50500;-72
2023/03/08 04:42:46;;;;;;;;;;;;;;;18.61;57.61;99234.69;2233225;78;50784;-72
2023/03/08 04:45:47;;;;;;;;;;;;;;;18.65;57.49;99235.06;2209158;78;51720;-73
2023/03/08 04:48:51;;;;;;;;;;;;;;;18.70;57.43;99232.06;2233082;78;51442;-72
2023/03/08 04:51:52;;;;;;;;;;;;;;;18.74;57.39;99227.07;2228928;78;22648;-73
2023/03/08 04:54:54;;;;;;;;;;;;;;;18.80;57.23;99221.38;2270341;77;50467;-73
2023/03/08 04:57:55;;;;;;;;;;;;;;;18.84;57.12;99220.73;2264770;77;49671;-73
2023/03/08 05:00:58;;;;;;;;;;;;;;;18.88;56.99;99219.76;2290519;77;50143;-73
2023/03/08 05:03:59;;;;;;;;;;;;;;;18.87;56.97;99220.81;2290755;77;51518;-72
2023/03/08 05:07:01;;;;;;;;;;;;;;;18.83;57.00;99227.14;2290723;77;51593;-73
2023/03/08 05:10:02;;;;;;;;;;;;;;;18.78;57.09;99234.17;2264710;77;51140;-72
2023/03/08 05:13:04;;;;;;;;;;;;;;;18.72;57.26;99223.78;2290484;77;51911;-73
2023/03/08 05:16:06;;;;;;;;;;;;;;;18.67;57.33;99222.28;2290829;77;50479;-72
2023/03/08 05:19:08;;;;;;;;;;;;;;;18.66;57.35;99220.65;2290475;77;50518;-73
2023/03/08 05:22:09;;;;;;;;;;;;;;;18.67;57.30;99227.64;2245734;77;51647;-73
2023/03/08 05:25:11;;;;;;;;;;;;;;;18.67;57.32;99232.99;2203561;78;51567;-73
2023/03/08 05:28:14;;;;;;;;;;;;;;;18.72;57.23;99231.82;2199986;81;51437;-73
2023/03/08 05:31:17;;;;;;;;;;;;;;;18.74;57.19;99239.13;2200334;81;50492;-74
2023/03/08 05:34:18;;;;;;;;;;;;;;;18.79;57.09;99235.83;2178529;81;51210;-74
2023/03/08 05:37:20;;;;;;;;;;;;;;;18.82;57.00;99235.39;2200284;81;50857;-73
2023/03/08 05:40:22;;;;;;;;;;;;;;;18.86;56.88;99236.08;2200113;81;52125;-74
2023/03/08 05:43:23;;;;;;;;;;;;;;;18.85;56.85;99237.63;2200101;81;51424;-74
2023/03/08 05:46:25;;;;;;;;;;;;;;;18.82;56.86;99244.77;2176725;80;51797;-73
2023/03/08 05:49:26;;;;;;;;;;;;;;;18.77;56.95;99247.28;2200163;81;50196;-74
2023/03/08 05:52:29;;;;;;;;;;;;;;;18.72;57.02;99258.61;2216687;79;50384;-74
2023/03/08 05:55:31;;;;;;;;;;;;;;;18.67;57.07;99253.09;2233569;78;50791;-74
2023/03/08 05:58:32;;;;;;;;;;;;;;;18.65;57.13;99249.80;2233382;78;50425;-74
2023/03/08 06:01:34;;;;;;;;;;;;;;;18.63;57.22;99251.90;2235301;78;51173;-75
2023/03/08 06:04:35;;;;;;;;;;;;;;;18.61;57.44;99253.44;2235074;78;51689;-74
2023/03/08 06:07:37;;;;;;;;;;;;;;;18.62;57.65;99250.24;2233303;78;51477;-73
2023/03/08 06:10:39;;;;;;;;;;;;;;;18.62;57.64;99255.59;2233574;78;51551;-73
2023/03/08 06:13:40;;;;;;;;;;;;;;;18.65;57.54;99264.53;2235196;78;51054;-73
2023/03/08 06:16:42;;;;;;;;;;;;;;;18.67;57.53;99260.60;2233632;78;50751;-73
2023/03/08 06:19:43;;;;;;;;;;;;;;;18.67;57.57;99263.80;2232690;78;50453;-73
2023/03/08 06:22:45;;;;;;;;;;;;;;;18.65;57.49;99265.88;2209185;79;50756;-71
2023/03/08 06:25:47;;;;;;;;;;;;;;;18.61;57.62;99270.86;2209094;79;51626;-72
2023/03/08 06:28:48;;;;;;;;;;;;;;;18.57;57.70;99266.95;2233099;78;51445;-71
2023/03/08 06:31:50;;;;;;;;;;;;;;;18.52;57.72;99270.80;2233612;78;51659;-72
2023/03/08 06:34:51;;;;;;;;;;;;;;;18.50;57.81;99270.22;2233508;78;51474;-72
2023/03/08 06:37:53;;;;;;;;;;;;;;;18.50;57.92;99273.72;2208863;78;52358;-72
2023/03/08 06:40:54;;;;;;;;;;;;;;;18.55;57.80;99269.55;2233291;78;50737;-72
2023/03/08 06:43:56;;;;;;;;;;;;;;;18.58;57.66;99272.64;2233719;78;50436;-72
2023/03/08 06:46:58;;;;;;;;;;;;;;;18.57;57.51;99277.67;2233517;78;51513;-72
2023/03/08 06:49:59;;;;;;;;;;;;;;;18.55;57.44;99282.45;2207171;79;51042;-72
2023/03/08 06:53:01;;;;;;;;;;;;;;;18.54;57.31;99275.43;2225467;78;50972;-72
2023/03/08 06:56:03;;;;;;;;;;;;;;;18.51;57.19;99267.84;2200364;81;50402;-71
2023/03/08 06:59:04;;;;;;;;;;;;;;;18.49;57.07;99265.36;2200131;80;51515;-70
2023/03/08 07:02:06;;;;;;;;;;;;;;;18.46;57.09;99265.80;2186265;78;50806;-69
2023/03/08 07:05:08;;;;;;;;;;;;;;;18.49;57.04;99264.55;2231880;78;51594;-70
2023/03/08 07:08:09;;;;;;;;;;;;;;;18.53;57.04;99262.27;2200480;81;51620;-70
2023/03/08 07:11:11;;;;;;;;;;;;;;;18.59;56.92;99258.19;2220071;78;51529;-70
2023/03/08 07:14:13;;;;;;;;;;;;;;;18.64;56.80;99252.19;2229943;77;51513;-70
2023/03/08 07:17:14;;;;;;;;;;;;;;;18.74;56.58;99256.55;2208563;78;51530;-70
2023/03/08 07:20:16;;;;;;;;;;;;;;;18.80;56.33;99266.41;2211203;79;51539;-71
2023/03/08 07:23:17;;;;;;;;;;;;;;;18.87;56.13;99267.71;2234135;78;50377;-70
2023/03/08 07:26:19;;;;;;;;;;;;;;;18.90;55.88;99263.25;2209463;79;51345;-71
2023/03/08 07:29:21;;;;;;;;;;;;;;;18.92;55.70;99262.52;2231848;77;50434;-70
2023/03/08 07:32:27;;;;;;;;;;;;;;;18.89;55.66;99260.28;2201296;79;50749;-70
2023/03/08 07:35:25;;;;;;;;;;;;;;;18.85;55.63;99257.20;2200215;80;22429;-70
2023/03/08 07:38:27;;;;;;;;;;;;;;;18.83;55.63;99261.98;2178719;78;52302;-72
2023/03/08 07:41:30;;;;;;;;;;;;;;;18.79;55.61;99264.78;2270225;78;50331;-72
2023/03/08 07:44:32;;;;;;;;;;;;;;;18.75;55.70;99266.24;2269884;77;50749;-72
2023/03/08 07:47:33;;;;;;;;;;;;;;;18.72;55.86;99271.48;2270465;78;50762;-72
2023/03/08 07:50:35;;;;;;;;;;;;;;;18.70;56.04;99264.21;2231328;78;51026;-71
2023/03/08 07:53:36;;;;;;;;;;;;;;;18.66;56.14;99273.70;2200363;79;51662;-71
2023/03/08 07:56:38;;;;;;;;;;;;;;;18.63;56.24;99276.02;2197987;80;51414;-72
2023/03/08 07:59:40;;;;;;;;;;;;;;;18.58;56.45;99277.18;2197120;80;51481;-71
2023/03/08 08:02:41;;;;;;;;;;;;;;;18.51;56.57;99275.88;2173746;80;52458;-71
2023/03/08 08:05:43;;;;;;;;;;;;;;;18.47;56.72;99278.66;2197120;80;51452;-72
2023/03/08 08:08:45;;;;;;;;;;;;;;;18.42;56.95;99276.66;2239038;77;51578;-71
2023/03/08 08:11:46;;;;;;;;;;;;;;;18.39;57.05;99271.70;2272100;78;51434;-71
2023/03/08 08:14:48;;;;;;;;;;;;;;;18.41;57.11;99271.50;2247333;78;52365;-71
2023/03/08 08:17:50;;;;;;;;;;;;;;;18.42;57.00;99269.96;2271995;78;51474;-72
2023/03/08 08:20:53;;;;;;;;;;;;;;;18.43;56.99;99264.08;2252542;78;51522;-71
2023/03/08 08:23:56;;;;;;;;;;;;;;;18.41;57.02;99267.48;2245609;77;51575;-71
2023/03/08 08:26:58;;;;;;;;;;;;;;;18.36;57.10;99256.08;2290483;77;22768;-72
2023/03/08 08:29:59;;;;;;;;;;;;;;;18.36;57.14;99260.61;2290580;77;50421;-73
2023/03/08 08:33:02;;;;;;;;;;;;;;;18.32;57.26;99270.13;2278579;76;50422;-71
2023/03/08 08:36:04;;;;;;;;;;;;;;;18.26;57.42;99266.44;2253350;77;51526;-71
2023/03/08 08:39:06;;;;;;;;;;;;;;;18.19;57.53;99257.64;2221001;78;51158;-71
2023/03/08 08:42:07;;;;;;;;;;;;;;;18.17;57.57;99253.02;2238660;77;50758;-71
2023/03/08 08:45:09;;;;;;;;;;;;;;;18.19;57.60;99253.63;2272568;77;50784;-72
2023/03/08 08:48:11;;;;;;;;;;;;;;;18.25;57.58;99252.75;2272152;78;50565;-71
2023/03/08 08:51:13;;;;;;;;;;;;;;;18.29;57.46;99251.30;2255988;78;50095;-71
2023/03/08 08:54:15;;;;;;;;;;;;;;;18.30;57.42;99242.22;2255873;77;51569;-71
2023/03/08 08:57:16;;;;;;;;;;;;;;;18.26;57.42;99229.80;2238394;79;50446;-72
2023/03/08 09:00:18;;;;;;;;;;;;;;;18.26;57.45;99228.95;2238226;79;50821;-72
2023/03/08 09:03:20;;;;;;;;;;;;;;;18.20;57.50;99225.80;2240068;79;51455;-71
2023/03/08 09:06:22;;;;;;;;;;;;;;;18.17;57.57;99215.53;2238387;79;51508;-71
2023/03/08 09:09:23;;;;;;;;;;;;;;;18.13;57.66;99219.66;2238090;79;50744;-71
2023/03/08 09:12:25;;;;;;;;;;;;;;;18.03;57.91;99216.11;2272398;77;51575;-71
2023/03/08 09:15:26;;;;;;;;;;;;;;;18.01;58.04;99216.86;2266489;77;51175;-71
2023/03/08 09:18:28;;;;;;;;;;;;;;;18.02;58.00;99211.80;2254559;78;51454;-72
2023/03/08 09:21:29;;;;;;;;;;;;;;;18.09;57.97;99215.80;2252232;78;50087;-70
2023/03/08 09:24:31;;;;;;;;;;;;;;;18.14;57.99;99209.28;2217243;78;50827;-72
2023/03/08 09:27:32;;;;;;;;;;;;;;;18.18;57.88;99219.31;2215280;77;51345;-71
2023/03/08 09:30:34;;;;;;;;;;;;;;;18.25;57.74;99222.78;2235257;79;50490;-71
2023/03/08 09:33:36;;;;;;;;;;;;;;;18.30;57.59;99217.31;2235713;78;50778;-71
2023/03/08 09:36:42;;;;;;;;;;;;;;;18.31;57.55;99216.26;2249008;77;51521;-71
2023/03/08 09:39:40;;;;;;;;;;;;;;;18.29;57.55;99220.51;2240162;77;22447;-71
2023/03/08 09:42:43;;;;;;;;;;;;;;;18.25;57.58;99208.05;2238202;79;51503;-71
2023/03/08 09:45:44;;;;;;;;;;;;;;;18.21;57.63;99200.17;2238254;79;51598;-71
2023/03/08 09:48:47;;;;;;;;;;;;;;;18.17;57.70;99199.47;2238062;79;50757;-71
2023/03/08 09:51:49;;;;;;;;;;;;;;;18.13;57.77;99207.09;2219156;77;52347;-72
2023/03/08 09:54:51;;;;;;;;;;;;;;;18.09;57.91;99205.90;2248983;77;50446;-71
2023/03/08 09:57:53;;;;;;;;;;;;;;;18.10;58.21;99189.31;2240798;77;50750;-72
2023/03/08 10:00:55;;;;;;;;;;;;;;;18.12;58.36;99191.27;2248381;77;51507;-71
2023/03/08 10:03:58;;;;;;;;;;;;;;;18.17;58.31;99186.08;2211970;79;50149;-72
2023/03/08 10:07:04;;;;;;;;;;;;;;;18.24;58.38;99189.02;2281277;77;50762;-71
2023/03/08 10:10:07;;;;;;;;;;;;;;;18.28;58.48;99197.42;2290398;77;51487;-72
2023/03/08 10:13:27;;;;;;;;;;;;;;;18.28;58.54;99185.37;2290854;77;51560;-72
2023/03/08 10:16:30;;;;;;;;;;;;;;;18.27;58.66;99183.75;2280760;77;50756;-72
2023/03/08 10:19:37;;;;;;;;;;;;;;;18.27;58.94;99174.38;2210800;79;51577;-72
2023/03/08 10:22:41;;;;;;;;;;;;;;;18.21;59.06;99173.89;2233003;77;50400;-72
2023/03/08 10:25:41;;;;;;;;;;;;;;;18.22;59.02;99178.23;2182180;80;22202;-73
2023/03/08 10:28:43;;;;;;;;;;;;;;;18.18;60.33;99182.36;2205352;77;52643;-75
2023/03/08 10:31:46;;;;;;;;;;;;;;;18.20;59.47;99177.62;2247790;77;51543;-73
2023/03/08 10:34:47;;;;;;;;;;;;;;;18.21;59.36;99177.41;2249255;77;51549;-73
2023/03/08 10:37:52;;;;;;;;;;;;;;;18.22;59.33;99173.69;2271657;77;51570;-73
2023/03/08 10:41:01;;;;;;;;;;;;;;;18.26;59.19;99175.40;2223154;78;49572;-73
2023/03/08 10:44:03;;;;;;;;;;;;;;;18.28;59.06;99167.98;2256034;77;51505;-73
2023/03/08 10:47:04;;;;;;;;;;;;;;;18.24;59.04;99166.79;2255194;77;51526;-73
2023/03/08 10:50:08;;;;;;;;;;;;;;;18.19;59.04;99163.41;2249417;77;50735;-74
2023/03/08 10:53:10;;;;;;;;;;;;;;;18.15;59.08;99160.86;2244791;78;51001;-73
2023/03/08 10:56:15;;;;;;;;;;;;;;;18.13;59.08;99154.08;2250856;77;50503;-72
2023/03/08 10:59:18;;;;;;;;;;;;;;;18.08;59.19;99146.69;2221644;78;51706;-72
2023/03/08 11:02:21;;;;;;;;;;;;;;;18.05;59.29;99137.23;2231349;78;51621;-72
2023/03/08 11:05:25;;;;;;;;;;;;;;;18.10;59.24;99138.45;2209291;79;51683;-73
2023/03/08 11:08:28;;;;;;;;;;;;;;;18.12;59.19;99137.20;2233508;78;51616;-73
2023/03/08 11:11:31;;;;;;;;;;;;;;;18.18;59.02;99136.33;2233632;78;51435;-71
2023/03/08 11:14:32;;;;;;;;;;;;;;;18.28;58.87;99125.95;2233170;78;51521;-72
2023/03/08 11:17:38;;;;;;;;;;;;;;;18.37;58.80;99121.16;2235241;78;50222;-72
2023/03/08 11:20:40;;;;;;;;;;;;;;;18.44;59.10;99117.88;2233699;78;22809;-73
2023/03/08 11:23:49;;;;;;;;;;;;;;;18.52;59.14;99116.79;2248118;77;50505;-72
2023/03/08 11:26:55;;;;;;;;;;;;;;;18.60;59.52;99116.53;2181874;81;50808;-73
2023/03/08 11:30:17;;;;;;;;;;;;;;;18.66;59.66;99110.80;2205902;78;50552;-72
2023/03/08 11:33:29;;;;;;;;;;;;;;;18.70;59.75;99099.43;2239052;77;51543;-72
2023/03/08 11:36:32;;;;;;;;;;;;;;;18.72;59.75;99091.16;2272385;78;50825;-73
2023/03/08 11:39:41;;;;;;;;;;;;;;;18.68;59.80;99084.09;2272209;78;50463;-72
2023/03/08 11:42:44;;;;;;;;;;;;;;;18.67;59.77;99082.96;2245278;77;52549;-73
2023/03/08 11:45:47;;;;;;;;;;;;;;;18.66;59.91;99080.00;2249727;77;51610;-72
2023/03/08 11:48:53;;;;;;;;;;;;;;;18.59;60.18;99079.23;2256798;77;51608;-74
2023/03/08 11:51:56;;;;;;;;;;;;;;;18.58;60.27;99069.05;2252751;78;52134;-72
2023/03/08 11:55:19;;;;;;;;;;;;;;;18.59;60.22;99068.52;2229643;77;51019;-72
2023/03/08 11:58:24;;;;;;;;;;;;;;;18.62;60.14;99072.09;2254668;77;22480;-70
2023/03/08 12:01:27;;;;;;;;;;;;;;;18.60;60.32;99056.75;2248733;77;51470;-70
2023/03/08 12:04:33;;;;;;;;;;;;;;;18.59;60.35;99056.47;2251684;77;51466;-70
2023/03/08 12:07:39;;;;;;;;;;;;;;;18.57;60.31;99049.16;2222693;78;52526;-72
2023/03/08 12:10:46;;;;;;;;;;;;;;;18.56;60.29;99051.56;2250677;77;50547;-71
2023/03/08 12:13:50;;;;;;;;;;;;;;;18.55;60.32;99045.39;2247401;77;50474;-71
2023/03/08 12:16:56;;;;;;;;;;;;;;;18.55;60.28;99041.87;2243541;77;50770;-71
2023/03/08 12:19:58;;;;;;;;;;;;;;;18.54;60.24;99037.56;2234496;77;51486;-72
2023/03/08 12:23:00;;;;;;;;;;;;;;;18.56;60.28;99032.28;2256706;78;51619;-72
2023/03/08 12:26:06;;;;;;;;;;;;;;;18.60;60.16;99028.62;2243937;77;50790;-71
2023/03/08 12:29:21;;;;;;;;;;;;;;;18.64;60.14;99035.19;2246781;77;51579;-71
2023/03/08 12:32:23;;;;;;;;;;;;;;;18.66;60.13;99025.08;2214645;78;51174;-70
2023/03/08 12:35:26;;;;;;;;;;;;;;;18.67;60.10;99017.33;2250098;77;50442;-71
2023/03/08 12:38:29;;;;;;;;;;;;;;;18.65;60.06;99015.38;2253335;77;50819;-71
2023/03/08 12:41:31;;;;;;;;;;;;;;;18.61;60.25;99012.34;2240580;78;50790;-71
2023/03/08 12:44:32;;;;;;;;;;;;;;;18.57;60.27;99015.69;2227812;77;51026;-70
2023/03/08 12:47:34;;;;;;;;;;;;;;;18.53;60.15;99009.16;2248612;77;51670;-71
2023/03/08 12:50:40;;;;;;;;;;;;;;;18.50;60.09;99006.40;2237037;78;51481;-70
2023/03/08 12:53:43;;;;;;;;;;;;;;;18.46;60.18;99003.33;2239807;79;50476;-70
2023/03/08 12:56:49;;;;;;;;;;;;;;;18.46;60.37;99001.17;2212672;79;49579;-70
2023/03/08 12:59:52;;;;;;;;;;;;;;;18.46;60.27;98997.97;2238162;79;51532;-71
2023/03/08 13:03:05;;;;;;;;;;;;;;;18.48;60.34;98994.56;2231428;77;51524;-71
2023/03/08 13:06:26;;;;;;;;;;;;;;;18.52;60.42;98998.12;2243130;77;51442;-72
2023/03/08 13:09:29;;;;;;;;;;;;;;;18.60;60.32;99005.86;2215422;80;52340;-71
2023/03/08 13:12:35;;;;;;;;;;;;;;;18.68;60.10;99002.37;2215870;80;51510;-71
2023/03/08 13:15:37;;;;;;;;;;;;;;;18.72;59.99;99011.59;2226916;78;51552;-71
2023/03/08 13:18:40;;;;;;;;;;;;;;;18.79;59.80;99006.20;2272532;78;50776;-70
2023/03/08 13:21:49;;;;;;;;;;;;;;;18.84;59.71;99000.98;2242377;77;50115;-69
2023/03/08 13:24:55;;;;;;;;;;;;;;;18.91;59.63;99007.61;2266376;77;51499;-69
2023/03/08 13:28:11;;;;;;;;;;;;;;;18.95;59.42;99005.29;2240942;78;50481;-71
2023/03/08 13:31:21;;;;;;;;;;;;;;;18.99;59.14;99012.66;2200541;78;50391;-71
2023/03/08 13:34:30;;;;;;;;;;;;;;;18.95;59.06;99019.50;2181150;80;50136;-71
2023/03/08 13:37:32;;;;;;;;;;;;;;;18.92;59.01;99010.58;2181811;80;50776;-70
2023/03/08 13:40:34;;;;;;;;;;;;;;;18.88;58.97;99012.91;2181708;80;51528;-71
2023/03/08 13:43:36;;;;;;;;;;;;;;;18.84;58.95;99013.56;2181825;81;50764;-71
2023/03/08 13:46:41;;;;;;;;;;;;;;;18.80;59.01;99005.14;2181242;80;51742;-71
2023/03/08 13:49:41;;;;;;;;;;;;;;;18.79;59.10;99008.06;2212580;78;22441;-71
2023/03/08 13:52:42;;;;;;;;;;;;;;;18.77;58.10;99001.58;2233279;79;52148;-70
2023/03/08 13:55:45;;;;;;;;;;;;;;;18.66;56.52;98996.95;2239940;77;51536;-70
2023/03/08 13:58:48;;;;;;;;;;;;;;;18.67;56.59;99001.25;2200475;78;52303;-71
2023/03/08 14:01:50;;;;;;;;;;;;;;;18.70;57.09;99004.81;2225045;77;50581;-70
2023/03/08 14:04:52;;;;;;;;;;;;;;;18.73;57.34;99012.43;2216383;79;50580;-69
2023/03/08 14:08:06;;;;;;;;;;;;;;;18.72;57.65;99005.41;2225967;77;51495;-70
2023/03/08 14:11:08;;;;;;;;;;;;;;;18.70;58.01;99012.85;2230005;78;50431;-70
2023/03/08 14:14:20;;;;;;;;;;;;;;;18.67;58.24;99006.61;2219960;77;51544;-71
2023/03/08 14:17:23;;;;;;;;;;;;;;;18.64;58.52;99008.40;2203852;77;50781;-70
2023/03/08 14:20:24;;;;;;;;;;;;;;;18.64;58.64;99009.74;2221730;77;50273;-71
2023/03/08 14:23:26;;;;;;;;;;;;;;;18.62;58.74;99012.63;2177424;79;50307;-70
2023/03/08 14:26:29;;;;;;;;;;;;;;;18.64;58.79;99007.06;2209798;78;50777;-69
2023/03/08 14:29:31;;;;;;;;;;;;;;;18.65;58.60;99003.33;2272204;77;51503;-71
2023/03/08 14:32:34;;;;;;;;;;;;;;;18.65;58.79;99001.49;2258280;77;50494;-70
2023/03/08 14:35:40;;;;;;;;;;;;;;;18.67;58.72;98996.70;2251369;77;52567;-69
2023/03/08 14:38:41;;;;;;;;;;;;;;;18.70;58.68;98988.74;2290535;77;51542;-70
2023/03/08 14:41:43;;;;;;;;;;;;;;;18.75;58.70;98990.75;2255566;77;51547;-70
2023/03/08 14:44:49;;;;;;;;;;;;;;;18.72;58.84;98979.97;2235538;78;51516;-70
2023/03/08 14:47:52;;;;;;;;;;;;;;;18.72;58.80;98985.32;2231338;77;51523;-70
2023/03/08 14:51:11;;;;;;;;;;;;;;;18.70;58.88;98978.87;2200025;81;51632;-70
2023/03/08 14:54:30;;;;;;;;;;;;;;;18.67;59.02;98974.46;2224844;78;50506;-69
2023/03/08 14:57:31;;;;;;;;;;;;;;;18.68;59.09;98972.09;2238211;78;51550;-69
2023/03/08 15:00:33;;;;;;;;;;;;;;;18.67;59.08;98973.13;2250600;77;51573;-71
2023/03/08 15:03:34;;;;;;;;;;;;;;;18.66;59.15;98970.16;2219530;77;51490;-70
2023/03/08 15:06:36;;;;;;;;;;;;;;;18.65;59.12;98968.01;2231541;77;51531;-70
2023/03/08 15:09:38;;;;;;;;;;;;;;;18.66;59.25;98970.16;2238051;78;50370;-69
2023/03/08 15:12:39;;;;;;;;;;;;;;;18.63;58.90;98974.10;2215231;79;52349;-70
2023/03/08 15:15:41;;;;;;;;;;;;;;;18.60;58.86;98976.39;2214570;79;51565;-70
2023/03/08 15:18:43;;;;;;;;;;;;;;;18.55;58.84;98969.55;2229863;78;51680;-71
2023/03/08 15:21:44;;;;;;;;;;;;;;;18.50;58.87;98963.02;2208586;78;50454;-70
2023/03/08 15:24:46;;;;;;;;;;;;;;;18.44;58.94;98962.55;2176707;81;52308;-70
2023/03/08 15:27:48;;;;;;;;;;;;;;;18.37;59.01;98955.14;2200165;81;51578;-70
2023/03/08 15:30:51;;;;;;;;;;;;;;;18.33;59.08;98951.25;2199894;81;50125;-70
2023/03/08 15:33:53;;;;;;;;;;;;;;;18.30;59.13;98942.86;2200119;80;50539;-71
2023/03/08 15:36:54;;;;;;;;;;;;;;;18.30;59.38;98949.56;2176538;81;51223;-71
2023/03/08 15:39:56;;;;;;;;;;;;;;;18.33;59.48;98945.09;2199976;80;51488;-71
2023/03/08 15:42:57;;;;;;;;;;;;;;;18.33;59.58;98942.41;2222111;78;50428;-72
2023/03/08 15:45:59;;;;;;;;;;;;;;;18.29;59.36;98939.38;2205745;79;50476;-71
2023/03/08 15:49:01;;;;;;;;;;;;;;;18.25;59.46;98940.32;2176290;81;49659;-73
2023/03/08 15:52:02;;;;;;;;;;;;;;;18.25;59.45;98934.16;2200239;81;50441;-74